Time;durP1;ratioP1;P1;durP2;ratioP2;P2;SDS_P1;SDS_P2;PMS_P1;PMS_P2;Temp;Humidity;BMP_temperature;BMP_pressure;BME280_temperature;BME280_humidity;BME280_pressure;Samples;Min_cycle;Max_cycle;Signal;HPM_P1;HPM_P2
2022/03/05 00:01:02;;;;;;;12.80;6.45;;;;;;;4.24;63.16;101974.63;5069128;28;20110;-71
2022/03/05 00:03:28;;;;;;;11.07;5.88;;;;;;;4.51;62.18;101979.63;5064673;28;20640;-71
2022/03/05 00:05:55;;;;;;;12.27;6.68;;;;;;;4.65;61.67;101977.81;5058481;28;20567;-71
2022/03/05 00:08:22;;;;;;;10.27;5.80;;;;;;;4.53;62.12;101972.69;5053410;28;20044;-71
2022/03/05 00:10:48;;;;;;;10.68;6.07;;;;;;;4.30;62.68;101978.03;5057091;28;20045;-70
2022/03/05 00:13:14;;;;;;;10.50;5.82;;;;;;;3.76;64.37;101986.13;5064030;28;20412;-71
2022/03/05 00:15:42;;;;;;;12.38;6.50;;;;;;;3.70;64.22;101980.94;5064152;28;20056;-71
2022/03/05 00:18:10;;;;;;;9.68;4.78;;;;;;;3.99;62.99;101978.22;5064177;28;20064;-71
2022/03/05 00:20:37;;;;;;;10.57;5.57;;;;;;;4.12;62.74;101982.47;5063865;28;20094;-71
2022/03/05 00:23:03;;;;;;;9.43;5.78;;;;;;;4.29;62.67;101972.84;5066145;28;20048;-71
2022/03/05 00:25:30;;;;;;;9.93;5.85;;;;;;;4.22;63.25;101976.34;5066985;28;20075;-71
2022/03/05 00:27:56;;;;;;;11.52;6.20;;;;;;;4.37;62.91;101976.25;5044570;28;20563;-71
2022/03/05 00:30:23;;;;;;;14.10;6.38;;;;;;;4.39;62.46;101979.72;5059650;28;20045;-71
2022/03/05 00:32:50;;;;;;;12.90;5.93;;;;;;;4.56;61.89;101983.06;5052853;28;20329;-71
2022/03/05 00:35:18;;;;;;;10.63;5.80;;;;;;;4.52;62.03;101977.88;5056602;28;20570;-71
2022/03/05 00:37:44;;;;;;;12.10;6.15;;;;;;;4.31;62.83;101981.50;5061883;28;20491;-71
2022/03/05 00:40:12;;;;;;;9.93;6.05;;;;;;;4.39;62.71;101990.97;5059750;28;20130;-71
2022/03/05 00:42:38;;;;;;;13.95;6.53;;;;;;;4.49;62.45;101988.31;5063474;28;20089;-71
2022/03/05 00:45:06;;;;;;;14.77;6.30;;;;;;;4.25;63.33;101981.56;5063404;28;20114;-71
2022/03/05 00:47:33;;;;;;;9.07;5.63;;;;;;;4.28;62.85;101987.59;5061600;28;20131;-70
2022/03/05 00:49:59;;;;;;;11.98;5.78;;;;;;;4.20;63.10;101988.50;5077368;28;20043;-71
2022/03/05 00:52:27;;;;;;;9.70;5.47;;;;;;;4.17;63.27;101986.78;5082817;28;20511;-70
2022/03/05 00:54:53;;;;;;;10.63;5.65;;;;;;;4.31;62.96;101991.88;5056212;28;20048;-70
2022/03/05 00:57:20;;;;;;;12.00;6.57;;;;;;;4.35;62.65;101991.88;5075871;28;20039;-70
2022/03/05 00:59:46;;;;;;;11.13;5.53;;;;;;;4.03;63.72;101991.16;5069047;28;20044;-70
2022/03/05 01:02:12;;;;;;;10.52;6.18;;;;;;;3.85;63.94;101994.72;5061187;28;20064;-71
2022/03/05 01:04:39;;;;;;;11.60;5.45;;;;;;;3.69;64.60;102000.84;5065186;28;20049;-70
2022/03/05 01:07:05;;;;;;;8.35;5.20;;;;;;;3.74;64.37;101996.47;5065599;28;20044;-70
2022/03/05 01:09:33;;;;;;;13.48;6.13;;;;;;;3.67;64.15;101994.78;5065280;28;20103;-70
2022/03/05 01:11:59;;;;;;;7.65;4.82;;;;;;;3.63;64.25;101990.47;5052525;28;20091;-70
2022/03/05 01:14:25;;;;;;;12.00;5.13;;;;;;;3.98;62.59;101987.75;5065443;28;20045;-70
2022/03/05 01:16:52;;;;;;;10.98;5.22;;;;;;;4.00;62.58;101986.00;5065673;28;20482;-70
2022/03/05 01:19:18;;;;;;;10.60;5.13;;;;;;;3.81;63.16;101987.81;5062840;28;20573;-71
2022/03/05 01:21:45;;;;;;;10.13;5.60;;;;;;;3.82;63.50;101986.06;5074626;28;20044;-71
2022/03/05 01:24:11;;;;;;;10.20;5.32;;;;;;;3.80;63.60;101993.03;5071557;28;20056;-71
2022/03/05 01:26:39;;;;;;;13.52;5.93;;;;;;;3.15;65.54;101991.44;5066825;28;20040;-71
2022/03/05 01:29:05;;;;;;;8.95;4.95;;;;;;;3.63;64.01;101989.59;5066312;28;20040;-71
2022/03/05 01:31:31;;;;;;;10.25;4.80;;;;;;;3.04;65.28;101993.19;5066795;28;20048;-71
2022/03/05 01:33:58;;;;;;;11.23;4.72;;;;;;;2.77;66.73;101988.88;5066339;28;20130;-71
2022/03/05 01:36:24;;;;;;;8.07;4.72;;;;;;;3.28;65.28;101993.19;5040796;28;20041;-71
2022/03/05 01:38:51;;;;;;;9.73;4.70;;;;;;;3.97;62.69;101985.16;5065670;28;20044;-71
2022/03/05 01:41:17;;;;;;;8.75;4.43;;;;;;;3.89;62.80;101980.84;5067541;28;20074;-71
2022/03/05 01:43:50;;;;;;;9.38;4.95;;;;;;;4.23;61.76;101981.53;5079038;28;20080;-71
2022/03/05 01:46:28;;;;;;;9.38;5.32;;;;;;;3.58;63.01;101981.00;5066199;28;20055;-71
2022/03/05 01:48:54;;;;;;;10.75;4.93;;;;;;;3.42;64.02;101982.75;5048104;28;20037;-70
2022/03/05 01:51:20;;;;;;;8.82;4.93;;;;;;;3.57;63.47;101976.66;5046920;28;20110;-71
2022/03/05 01:53:47;;;;;;;8.68;4.70;;;;;;;3.59;63.61;101973.19;5060250;28;20036;-71
2022/03/05 01:56:13;;;;;;;7.45;4.20;;;;;;;3.14;63.98;101983.69;5085946;28;20097;-70
2022/03/05 01:58:40;;;;;;;7.15;4.32;;;;;;;2.88;65.95;101978.53;5070647;28;20040;-70
2022/03/05 02:01:08;;;;;;;8.45;5.30;;;;;;;2.99;66.20;101974.22;5064009;28;20040;-70
2022/03/05 02:03:36;;;;;;;8.70;4.70;;;;;;;3.19;64.26;101976.75;5065692;28;20047;-70
2022/03/05 02:06:03;;;;;;;9.68;4.55;;;;;;;3.41;62.94;101975.84;5061764;28;20059;-71
2022/03/05 02:08:30;;;;;;;9.80;4.97;;;;;;;3.53;62.86;101968.03;5065892;28;20096;-71
2022/03/05 02:10:57;;;;;;;9.38;4.93;;;;;;;3.41;63.19;101976.72;5057654;28;20097;-71
2022/03/05 02:13:23;;;;;;;9.43;4.95;;;;;;;3.13;63.93;101972.47;5066011;28;20466;-71
2022/03/05 02:15:54;;;;;;;11.38;5.45;;;;;;;3.29;63.47;101975.88;5070941;28;20090;-70
2022/03/05 02:18:21;;;;;;;12.80;5.75;;;;;;;2.79;64.67;101970.75;5062375;28;20528;-70
2022/03/05 02:20:49;;;;;;;12.77;5.28;;;;;;;2.69;65.29;101969.91;5066224;28;20049;-70
2022/03/05 02:23:16;;;;;;;12.82;5.55;;;;;;;2.63;65.31;101969.03;5062895;28;20072;-70
2022/03/05 02:25:52;;;;;;;9.88;5.78;;;;;;;2.35;65.91;101962.97;5064630;28;20098;-71
2022/03/05 02:28:19;;;;;;;9.35;5.35;;;;;;;2.12;66.41;101970.69;5054810;28;20135;-71
2022/03/05 02:30:46;;;;;;;11.10;5.07;;;;;;;2.07;66.37;101968.97;5065558;28;20045;-71
2022/03/05 02:33:12;;;;;;;8.77;4.97;;;;;;;2.17;66.14;101971.56;5064118;28;20072;-71
2022/03/05 02:35:39;;;;;;;9.55;5.30;;;;;;;1.95;65.60;101977.53;5065899;28;20048;-71
2022/03/05 02:38:06;;;;;;;10.90;4.72;;;;;;;1.53;66.92;101983.41;5067784;28;20393;-71
2022/03/05 02:40:34;;;;;;;11.38;5.65;;;;;;;1.73;66.61;101978.31;5060438;28;20044;-71
2022/03/05 02:43:00;;;;;;;10.80;4.75;;;;;;;1.44;67.19;101978.19;5049967;28;20092;-71
2022/03/05 02:45:27;;;;;;;10.45;4.47;;;;;;;1.44;67.03;101978.19;5065465;28;20044;-71
2022/03/05 02:47:53;;;;;;;11.80;4.82;;;;;;;1.59;66.87;101970.47;5066188;28;20068;-71
2022/03/05 02:50:19;;;;;;;8.38;4.80;;;;;;;1.54;66.82;101973.91;5066108;28;20044;-71
2022/03/05 02:52:46;;;;;;;10.45;4.63;;;;;;;1.01;68.81;101976.19;5065136;28;20519;-71
2022/03/05 02:55:13;;;;;;;9.90;4.60;;;;;;;1.04;68.96;101963.28;5085503;28;20047;-71
2022/03/05 02:57:40;;;;;;;10.38;4.95;;;;;;;1.27;67.69;101964.28;5086041;28;20069;-71
2022/03/05 03:00:08;;;;;;;9.75;4.88;;;;;;;1.17;67.00;101967.69;5061526;28;20106;-71
2022/03/05 03:02:34;;;;;;;15.57;5.50;;;;;;;1.14;66.05;101958.22;5053737;28;20067;-71
2022/03/05 03:05:01;;;;;;;6.35;3.92;;;;;;;1.09;65.69;101961.59;5073719;28;20056;-71
2022/03/05 03:07:27;;;;;;;10.77;4.50;;;;;;;1.14;65.36;101962.50;5081461;28;20086;-71
2022/03/05 03:09:53;;;;;;;8.75;4.47;;;;;;;1.10;65.17;101964.22;5068837;28;20122;-71
2022/03/05 03:12:21;;;;;;;11.73;4.80;;;;;;;1.25;64.97;101976.34;5070005;28;20040;-71
2022/03/05 03:14:48;;;;;;;7.75;4.57;;;;;;;1.22;65.81;101972.00;5077040;28;20056;-71
2022/03/05 03:17:14;;;;;;;12.35;4.78;;;;;;;1.13;66.43;101974.56;5062279;28;20507;-71
2022/03/05 03:19:40;;;;;;;11.13;5.20;;;;;;;0.93;67.58;101979.56;5049714;28;20051;-71
2022/03/05 03:22:07;;;;;;;10.93;4.93;;;;;;;1.19;67.21;101981.47;5089736;28;20110;-71
2022/03/05 03:24:33;;;;;;;9.38;5.15;;;;;;;1.19;67.30;101981.47;5089981;28;20477;-71
2022/03/05 03:26:59;;;;;;;10.10;5.05;;;;;;;1.08;67.38;101973.66;5089275;28;20044;-71
2022/03/05 03:29:27;;;;;;;12.00;4.90;;;;;;;0.97;67.36;101978.75;5072800;28;20557;-71
2022/03/05 03:31:53;;;;;;;9.70;4.50;;;;;;;0.91;67.18;101976.13;5068088;28;20044;-71
2022/03/05 03:34:20;;;;;;;10.18;5.05;;;;;;;0.93;66.95;101977.00;5070976;28;20466;-71
2022/03/05 03:36:46;;;;;;;8.95;3.85;;;;;;;0.84;66.99;101976.94;5083049;28;20036;-71
2022/03/05 03:39:12;;;;;;;10.02;4.30;;;;;;;0.79;66.55;101973.44;5067298;28;22062;-71
2022/03/05 03:41:39;;;;;;;8.35;4.30;;;;;;;0.70;66.24;101980.25;5068095;28;20040;-71
2022/03/05 03:44:06;;;;;;;9.85;3.80;;;;;;;0.56;66.20;101977.53;5076606;28;20090;-71
2022/03/05 03:46:34;;;;;;;8.30;4.63;;;;;;;0.61;66.37;101985.34;5070464;28;20454;-71
2022/03/05 03:49:00;;;;;;;15.07;4.55;;;;;;;0.47;67.24;101977.47;5081340;28;20074;-71
2022/03/05 03:51:26;;;;;;;8.32;4.25;;;;;;;0.47;67.48;101982.63;5057614;28;20045;-71
2022/03/05 03:53:53;;;;;;;7.30;4.05;;;;;;;0.48;65.75;101990.38;5080057;28;20088;-71
2022/03/05 03:56:19;;;;;;;9.80;4.32;;;;;;;0.46;65.17;101975.75;5092621;28;20462;-71
2022/03/05 03:58:46;;;;;;;9.65;3.97;;;;;;;0.44;65.30;101978.28;5085795;28;20072;-71
2022/03/05 04:01:12;;;;;;;8.80;3.63;;;;;;;0.39;65.83;101981.69;5070555;28;20110;-71
2022/03/05 04:03:40;;;;;;;9.25;4.18;;;;;;;0.17;66.55;101980.63;5070896;28;20048;-71
2022/03/05 04:06:06;;;;;;;8.45;3.90;;;;;;;0.21;66.34;101981.50;5071177;28;20048;-71
2022/03/05 04:08:43;;;;;;;8.82;3.92;;;;;;;-0.05;67.12;101989.84;5076825;28;20465;-71
2022/03/05 04:11:10;;;;;;;7.38;4.53;;;;;;;0.24;66.68;101999.59;5071579;28;20110;-71
2022/03/05 04:13:36;;;;;;;7.28;4.25;;;;;;;0.21;66.85;101994.41;5068737;28;20048;-71
2022/03/05 04:16:03;;;;;;;11.80;4.10;;;;;;;0.16;66.79;102006.38;5066969;28;20105;-71
2022/03/05 04:18:30;;;;;;;8.10;4.43;;;;;;;0.23;66.35;102000.44;5063849;28;20045;-71
2022/03/05 04:20:58;;;;;;;7.63;3.58;;;;;;;0.03;66.44;101999.38;5067984;28;20068;-70
2022/03/05 04:23:24;;;;;;;7.20;3.75;;;;;;;-0.02;66.12;102001.88;5073351;28;20090;-70
2022/03/05 04:25:51;;;;;;;10.07;4.28;;;;;;;0.02;66.41;102007.94;5055868;28;20119;-71
2022/03/05 04:28:17;;;;;;;10.55;4.10;;;;;;;-0.05;66.42;102001.84;5063449;28;20101;-71
2022/03/05 04:30:44;;;;;;;8.82;4.35;;;;;;;-0.17;66.59;102005.16;5054846;28;20060;-72
2022/03/05 04:33:10;;;;;;;9.20;4.38;;;;;;;-0.07;65.99;102006.97;5067601;28;20048;-70
2022/03/05 04:35:37;;;;;;;7.53;4.25;;;;;;;-0.02;65.70;102000.19;5068306;28;20124;-70
2022/03/05 04:38:05;;;;;;;9.57;4.32;;;;;;;-0.01;65.36;102003.63;5067863;28;20049;-71
2022/03/05 04:40:32;;;;;;;6.75;3.60;;;;;;;-0.13;64.78;102011.22;5067314;28;20048;-70
2022/03/05 04:42:59;;;;;;;9.43;4.03;;;;;;;-0.53;66.39;102004.69;5052951;28;20049;-70
2022/03/05 04:45:26;;;;;;;9.43;4.15;;;;;;;-0.76;68.17;102008.63;5065570;28;20561;-70
2022/03/05 04:47:53;;;;;;;8.45;4.03;;;;;;;-0.64;68.49;102014.84;5051326;28;20096;-69
2022/03/05 04:50:19;;;;;;;10.38;3.90;;;;;;;-0.54;67.82;102008.97;5083345;28;20070;-70
2022/03/05 04:52:46;;;;;;;8.82;4.18;;;;;;;-0.69;67.91;102016.47;5093446;28;20047;-69
2022/03/05 04:55:14;;;;;;;6.55;3.40;;;;;;;-0.72;67.69;102011.28;5072552;28;20504;-70
2022/03/05 04:57:40;;;;;;;12.18;4.40;;;;;;;-0.66;67.43;102010.50;5069630;28;20052;-70
2022/03/05 05:00:09;;;;;;;7.68;3.80;;;;;;;-0.71;67.49;102018.19;5069461;28;20488;-70
2022/03/05 05:02:35;;;;;;;16.38;4.05;;;;;;;-0.93;67.76;102021.28;5062955;28;20040;-70
2022/03/05 05:05:02;;;;;;;8.75;4.38;;;;;;;-0.92;67.62;102025.56;5070832;28;20558;-70
2022/03/05 05:07:28;;;;;;;8.60;4.22;;;;;;;-0.75;66.94;102016.41;5070180;28;20526;-70
2022/03/05 05:09:54;;;;;;;10.48;4.45;;;;;;;-0.93;67.13;102018.69;5068812;28;20045;-70
2022/03/05 05:12:22;;;;;;;8.02;4.25;;;;;;;-0.82;66.91;102012.00;5069936;28;20080;-70
2022/03/05 05:14:49;;;;;;;7.53;3.85;;;;;;;-0.73;66.97;102024.13;5061416;28;20036;-70
2022/03/05 05:17:15;;;;;;;8.85;3.95;;;;;;;-0.92;67.10;102025.56;5069928;28;20044;-70
2022/03/05 05:19:42;;;;;;;8.70;4.45;;;;;;;-0.98;67.31;102026.34;5079604;28;20036;-70
2022/03/05 05:22:08;;;;;;;8.85;3.85;;;;;;;-0.84;66.77;102028.25;5090191;28;20090;-70
2022/03/05 05:24:36;;;;;;;9.20;4.10;;;;;;;-0.74;66.34;102027.56;5072436;28;20128;-70
2022/03/05 05:27:04;;;;;;;7.47;3.50;;;;;;;-0.89;66.48;102027.34;5070307;28;20601;-71
2022/03/05 05:29:32;;;;;;;9.93;4.53;;;;;;;-0.88;66.46;102018.75;5065853;28;20049;-70
2022/03/05 05:31:59;;;;;;;9.75;4.70;;;;;;;-0.90;66.46;102020.44;5063141;28;20544;-70
2022/03/05 05:34:26;;;;;;;11.43;4.00;;;;;;;-0.80;65.57;102023.19;5066418;28;20048;-71
2022/03/05 05:36:53;;;;;;;7.28;3.75;;;;;;;-0.84;65.34;102023.97;5069771;28;20044;-71
2022/03/05 05:39:19;;;;;;;8.98;3.80;;;;;;;-0.85;65.58;102018.81;5072303;28;20048;-71
2022/03/05 05:41:45;;;;;;;10.77;4.38;;;;;;;-0.91;65.56;102023.84;5069044;28;20048;-70
2022/03/05 05:44:12;;;;;;;6.57;3.90;;;;;;;-0.82;65.16;102019.72;5068860;28;20517;-70
2022/03/05 05:46:40;;;;;;;10.18;4.35;;;;;;;-0.77;65.19;102018.06;5068608;28;20036;-71
2022/03/05 05:49:06;;;;;;;9.45;4.72;;;;;;;-0.91;66.56;102026.44;5067837;28;20048;-70
2022/03/05 05:51:33;;;;;;;10.68;4.30;;;;;;;-1.00;67.31;102020.28;5051352;28;20053;-70
2022/03/05 05:54:00;;;;;;;7.60;4.00;;;;;;;-1.12;68.25;102020.13;5056340;28;20054;-70
2022/03/05 05:56:26;;;;;;;9.88;4.28;;;;;;;-1.08;68.88;102026.19;5069111;28;20086;-70
2022/03/05 05:58:53;;;;;;;10.93;4.10;;;;;;;-1.20;69.15;102023.38;5085084;28;20048;-70
2022/03/05 06:01:20;;;;;;;9.20;4.18;;;;;;;-1.06;68.92;102020.19;5069213;28;20036;-70
2022/03/05 06:03:49;;;;;;;9.38;4.88;;;;;;;-0.98;69.29;102017.75;5059841;28;20051;-70
2022/03/05 06:06:15;;;;;;;10.88;5.00;;;;;;;-1.22;70.11;102028.50;5064052;28;20072;-70
2022/03/05 06:08:41;;;;;;;8.10;4.03;;;;;;;-1.20;69.83;102025.97;5068303;28;20090;-70
2022/03/05 06:11:08;;;;;;;9.90;4.80;;;;;;;-1.18;70.38;102035.44;5083156;28;20070;-70
2022/03/05 06:13:34;;;;;;;10.15;4.68;;;;;;;-1.25;71.22;102031.03;5071016;28;20055;-70
2022/03/05 06:16:00;;;;;;;9.60;4.72;;;;;;;-1.24;71.61;102031.91;5059683;28;20049;-70
2022/03/05 06:18:27;;;;;;;15.95;6.00;;;;;;;-1.15;72.27;102032.94;5064313;28;20044;-70
2022/03/05 06:20:55;;;;;;;8.85;4.60;;;;;;;-0.73;71.32;102045.59;5084909;28;20469;-70
2022/03/05 06:23:23;;;;;;;13.10;6.40;;;;;;;-0.05;70.00;102043.97;5081539;28;20487;-71
2022/03/05 06:25:50;;;;;;;8.25;4.60;;;;;;;0.00;69.33;102042.31;5062056;28;20052;-70
2022/03/05 06:28:16;;;;;;;9.90;4.90;;;;;;;0.08;68.68;102041.53;5087206;28;20054;-70
2022/03/05 06:30:43;;;;;;;9.38;4.80;;;;;;;0.29;68.50;102039.22;5087763;28;20048;-70
2022/03/05 06:33:09;;;;;;;9.95;5.20;;;;;;;0.31;68.34;102042.66;5070197;28;20098;-71
2022/03/05 06:35:36;;;;;;;8.32;4.68;;;;;;;0.42;68.13;102036.78;5068224;28;20040;-70
2022/03/05 06:38:04;;;;;;;10.30;5.07;;;;;;;0.58;68.38;102036.94;5067779;28;20048;-71
2022/03/05 06:40:30;;;;;;;9.15;5.13;;;;;;;1.03;67.23;102042.50;5068208;28;20045;-70
2022/03/05 06:42:56;;;;;;;9.75;5.60;;;;;;;1.41;65.97;102040.19;5079342;28;20044;-70
2022/03/05 06:45:23;;;;;;;9.88;5.65;;;;;;;1.53;65.48;102037.69;5068799;28;20454;-70
2022/03/05 06:47:49;;;;;;;11.57;5.25;;;;;;;1.62;65.35;102047.22;5066596;28;20125;-70
2022/03/05 06:50:16;;;;;;;13.27;6.82;;;;;;;1.83;64.91;102042.16;5063099;28;20145;-70
2022/03/05 06:52:42;;;;;;;9.68;5.55;;;;;;;2.31;63.73;102049.22;5055577;28;20049;-71
2022/03/05 06:55:13;;;;;;;14.80;6.35;;;;;;;2.78;62.69;102044.13;5085958;28;20048;-71
2022/03/05 06:57:40;;;;;;;10.32;5.78;;;;;;;3.23;61.18;102043.28;5088565;28;20132;-71
2022/03/05 07:00:08;;;;;;;11.40;7.00;;;;;;;3.49;60.76;102051.88;5071356;28;20122;-71
2022/03/05 07:02:34;;;;;;;13.45;7.40;;;;;;;3.64;61.35;102053.59;5064615;28;20411;-71
2022/03/05 07:05:00;;;;;;;11.77;7.05;;;;;;;4.23;60.02;102048.19;5067647;28;20433;-71
2022/03/05 07:07:27;;;;;;;10.80;6.38;;;;;;;4.47;59.53;102052.41;5068400;28;20049;-71
2022/03/05 07:09:53;;;;;;;13.13;6.30;;;;;;;4.91;58.78;102061.59;5067873;28;20482;-71
2022/03/05 07:12:21;;;;;;;12.57;7.05;;;;;;;5.15;57.80;102059.69;5068221;28;20608;-71
2022/03/05 07:14:48;;;;;;;12.20;7.18;;;;;;;5.41;57.09;102065.53;5067495;28;20040;-71
2022/03/05 07:17:15;;;;;;;11.02;7.15;;;;;;;5.49;57.55;102068.91;5068072;28;20044;-71
2022/03/05 07:19:41;;;;;;;13.18;7.28;;;;;;;5.66;56.81;102063.53;5068686;28;20091;-71
2022/03/05 07:22:08;;;;;;;10.45;6.45;;;;;;;6.07;55.92;102063.09;5068292;28;20496;-71
2022/03/05 07:24:35;;;;;;;13.77;7.20;;;;;;;6.37;56.32;102065.31;5068009;28;20049;-71
2022/03/05 07:27:01;;;;;;;11.75;6.95;;;;;;;6.55;55.55;102070.28;5068156;28;20048;-71
2022/03/05 07:29:29;;;;;;;12.25;7.20;;;;;;;6.84;55.42;102075.06;5076461;28;20044;-70
2022/03/05 07:31:55;;;;;;;9.98;6.90;;;;;;;7.18;54.09;102068.44;5066057;28;20048;-70
2022/03/05 07:34:22;;;;;;;9.43;6.82;;;;;;;7.16;54.77;102067.63;5063651;28;20068;-70
2022/03/05 07:36:48;;;;;;;10.57;7.10;;;;;;;7.19;54.06;102070.16;5068309;28;20478;-70
2022/03/05 07:39:15;;;;;;;13.57;7.32;;;;;;;7.46;53.87;102067.97;5055103;28;20078;-71
2022/03/05 07:41:41;;;;;;;11.88;7.50;;;;;;;7.70;52.65;102068.38;5055446;28;20049;-71
2022/03/05 07:44:08;;;;;;;13.45;7.22;;;;;;;8.04;52.61;102067.72;5062967;28;20451;-71
2022/03/05 07:46:36;;;;;;;12.93;7.20;;;;;;;8.35;51.17;102071.47;5055174;28;20456;-71
2022/03/05 07:49:03;;;;;;;11.57;7.00;;;;;;;8.66;52.01;102064.66;5067040;28;20052;-71
2022/03/05 07:51:29;;;;;;;11.88;7.22;;;;;;;8.58;51.07;102071.81;5073820;28;20044;-70
2022/03/05 07:53:55;;;;;;;15.70;7.75;;;;;;;8.08;52.32;102072.00;5063832;28;20396;-71
2022/03/05 07:56:22;;;;;;;11.88;7.13;;;;;;;7.92;52.75;102066.22;5067749;28;20040;-72
2022/03/05 07:58:48;;;;;;;11.77;7.30;;;;;;;8.31;51.37;102072.44;5058796;28;20449;-72
2022/03/05 08:01:15;;;;;;;14.38;7.75;;;;;;;9.01;49.26;102065.59;5060096;28;20424;-73
2022/03/05 08:03:42;;;;;;;11.93;7.72;;;;;;;9.45;48.31;102077.56;5070678;28;20040;-72
2022/03/05 08:06:09;;;;;;;11.65;7.88;;;;;;;8.68;49.02;102075.94;5077019;28;20070;-73
2022/03/05 08:08:35;;;;;;;12.23;8.65;;;;;;;8.57;50.46;102066.63;5071205;28;20044;-73
2022/03/05 08:11:02;;;;;;;12.25;8.07;;;;;;;8.28;51.98;102080.28;5070371;28;20056;-73
2022/03/05 08:13:29;;;;;;;14.60;8.32;;;;;;;8.15;51.97;102076.19;5070014;28;20510;-72
2022/03/05 08:15:56;;;;;;;13.45;7.90;;;;;;;8.84;50.60;102081.69;5070658;28;20166;-72
2022/03/05 08:18:22;;;;;;;13.93;8.30;;;;;;;8.97;49.92;102084.88;5075714;28;20037;-72
2022/03/05 08:20:50;;;;;;;13.10;8.73;;;;;;;9.38;48.04;102082.13;5070329;28;20048;-72
2022/03/05 08:23:17;;;;;;;13.80;8.52;;;;;;;9.76;47.97;102087.19;5073808;28;20053;-72
2022/03/05 08:25:43;;;;;;;14.23;8.07;;;;;;;10.14;46.06;102087.88;5066112;28;20051;-72
2022/03/05 08:28:09;;;;;;;13.70;8.25;;;;;;;10.18;48.21;102077.31;5091021;28;20097;-72
2022/03/05 08:30:36;;;;;;;14.95;8.57;;;;;;;10.45;45.14;102074.78;5070761;28;20041;-72
2022/03/05 08:33:02;;;;;;;12.27;8.05;;;;;;;10.57;45.15;102077.03;5070050;28;20581;-72
2022/03/05 08:35:29;;;;;;;15.40;8.88;;;;;;;11.25;43.77;102077.47;5070408;28;20049;-74
2022/03/05 08:37:57;;;;;;;14.45;9.20;;;;;;;10.54;45.21;102074.50;5074320;28;20040;-72
2022/03/05 08:40:23;;;;;;;11.07;7.75;;;;;;;11.59;42.39;102075.41;5045966;28;20041;-73
2022/03/05 08:42:50;;;;;;;13.10;8.80;;;;;;;11.23;45.74;102080.13;5073507;28;20546;-73
2022/03/05 08:45:17;;;;;;;13.95;7.72;;;;;;;10.91;45.41;102069.81;5053831;28;20155;-72
2022/03/05 08:47:44;;;;;;;16.33;8.18;;;;;;;12.33;42.23;102073.66;5068872;28;20044;-73
2022/03/05 08:50:11;;;;;;;13.65;8.40;;;;;;;11.94;42.71;102068.94;5055458;28;20048;-73
2022/03/05 08:52:37;;;;;;;11.68;8.07;;;;;;;11.10;44.96;102068.34;5069780;28;20041;-72
2022/03/05 08:55:07;;;;;;;13.00;7.90;;;;;;;11.33;45.98;102066.72;5069418;28;20102;-72
2022/03/05 08:57:34;;;;;;;10.15;6.88;;;;;;;11.72;43.13;102065.34;5055830;28;20065;-72
2022/03/05 09:00:00;;;;;;;12.55;7.80;;;;;;;11.04;42.30;102063.28;5057952;28;20106;-71
2022/03/05 09:02:27;;;;;;;8.32;5.38;;;;;;;11.16;42.15;102070.75;5077804;28;20044;-71
2022/03/05 09:04:54;;;;;;;10.15;6.50;;;;;;;11.74;41.12;102068.81;5070005;28;20453;-71
2022/03/05 09:07:20;;;;;;;9.07;5.63;;;;;;;12.33;41.92;102071.00;5070049;28;20048;-72
2022/03/05 09:09:46;;;;;;;9.52;6.65;;;;;;;12.16;41.83;102064.59;5068571;28;20041;-72
2022/03/05 09:12:14;;;;;;;10.02;6.70;;;;;;;11.38;39.77;102062.16;5066313;28;20072;-72
2022/03/05 09:14:40;;;;;;;13.27;7.50;;;;;;;11.62;37.63;102056.91;5063476;28;20044;-69
2022/03/05 09:17:07;;;;;;;13.15;8.43;;;;;;;12.23;36.89;102061.75;5065628;28;20048;-69
2022/03/05 09:19:33;;;;;;;13.05;9.13;;;;;;;11.01;43.42;102067.78;5057030;28;20055;-69
2022/03/05 09:22:00;;;;;;;12.82;8.10;;;;;;;11.01;39.77;102067.78;5054297;28;20091;-69
2022/03/05 09:24:26;;;;;;;13.43;8.45;;;;;;;11.76;39.47;102068.72;5055350;28;20044;-69
2022/03/05 09:26:53;;;;;;;12.05;7.95;;;;;;;12.11;39.11;102055.19;5047641;28;20091;-69
2022/03/05 09:29:20;;;;;;;14.93;8.38;;;;;;;12.80;37.96;102058.63;5065880;28;20433;-69
2022/03/05 09:31:47;;;;;;;12.77;8.23;;;;;;;12.47;36.97;102042.41;5069205;28;21551;-69
2022/03/05 09:34:13;;;;;;;14.18;9.38;;;;;;;12.37;38.38;102047.16;5057999;28;20695;-69
2022/03/05 09:36:39;;;;;;;17.00;10.35;;;;;;;11.81;41.51;102051.03;5056846;28;20497;-68
2022/03/05 09:39:06;;;;;;;14.73;10.00;;;;;;;11.81;38.99;102051.91;5067995;28;20052;-68
2022/03/05 09:41:32;;;;;;;13.95;9.13;;;;;;;11.50;39.80;102052.09;5061893;28;20098;-68
2022/03/05 09:43:59;;;;;;;13.82;9.10;;;;;;;11.87;38.83;102045.56;5063375;28;20497;-68
2022/03/05 09:46:27;;;;;;;12.82;8.23;;;;;;;11.03;40.83;102053.69;5053061;28;20124;-68
2022/03/05 09:48:54;;;;;;;13.25;7.10;;;;;;;11.56;40.03;102054.53;5052945;28;20055;-68
2022/03/05 09:51:22;;;;;;;9.02;6.15;;;;;;;10.54;40.40;102051.75;5073069;28;20047;-68
2022/03/05 09:53:53;;;;;;;11.10;6.95;;;;;;;10.93;41.37;102052.28;5068774;28;20059;-68
2022/03/05 09:56:19;;;;;;;9.88;6.25;;;;;;;11.37;39.18;102049.94;5068461;28;20131;-68
2022/03/05 09:58:46;;;;;;;9.35;5.90;;;;;;;12.03;38.12;102044.94;5067998;28;20048;-68
2022/03/05 10:01:12;;;;;;;8.63;5.13;;;;;;;11.76;36.72;102037.19;5042207;28;20095;-69
2022/03/05 10:03:48;;;;;;;7.90;5.05;;;;;;;12.72;35.55;102037.88;5065503;28;20528;-69
2022/03/05 10:06:16;;;;;;;8.00;5.22;;;;;;;11.58;38.66;102044.81;5080191;28;20094;-69
2022/03/05 10:08:42;;;;;;;6.53;4.38;;;;;;;12.25;36.03;102034.47;5070490;28;20046;-69
2022/03/05 10:11:09;;;;;;;6.40;4.75;;;;;;;12.64;35.57;102042.59;5074788;28;20048;-69
2022/03/05 10:13:37;;;;;;;8.07;4.90;;;;;;;12.59;35.39;102037.53;5054844;28;20532;-69
2022/03/05 10:16:05;;;;;;;7.07;4.45;;;;;;;12.04;35.63;102043.19;5064981;28;20049;-69
2022/03/05 10:18:33;;;;;;;8.68;5.57;;;;;;;12.46;35.79;102038.91;5063230;28;20106;-69
2022/03/05 10:21:02;;;;;;;7.63;4.53;;;;;;;11.52;36.24;102034.53;5070463;28;20040;-69
2022/03/05 10:23:33;;;;;;;9.15;5.20;;;;;;;12.20;37.59;102023.28;5071295;28;20488;-69
2022/03/05 10:26:03;;;;;;;7.78;5.47;;;;;;;12.67;36.94;102030.16;5055649;28;20059;-69
2022/03/05 10:28:30;;;;;;;11.30;5.68;;;;;;;13.37;37.68;102032.56;5067748;28;20044;-69
2022/03/05 10:30:58;;;;;;;8.13;5.30;;;;;;;13.42;35.40;102035.00;5061483;28;20101;-69
2022/03/05 10:33:28;;;;;;;8.20;5.47;;;;;;;12.89;33.27;102024.91;5065564;28;20033;-69
2022/03/05 10:35:56;;;;;;;8.82;5.57;;;;;;;12.47;35.61;102024.84;5056764;28;20064;-69
2022/03/05 10:38:25;;;;;;;7.43;5.13;;;;;;;11.92;36.37;102027.84;5065350;28;20056;-69
2022/03/05 10:40:55;;;;;;;9.93;5.63;;;;;;;12.20;37.63;102025.91;5049364;28;20051;-68
2022/03/05 10:43:24;;;;;;;10.68;5.45;;;;;;;12.48;35.74;102016.06;5069361;28;20048;-69
2022/03/05 10:45:52;;;;;;;7.72;5.57;;;;;;;13.10;35.82;102020.56;5062134;28;20048;-70
2022/03/05 10:48:24;;;;;;;8.18;5.68;;;;;;;13.00;38.30;102021.84;5063760;28;20098;-70
2022/03/05 10:50:56;;;;;;;7.65;5.43;;;;;;;12.77;35.18;102016.66;5074091;28;20462;-70
2022/03/05 10:53:38;;;;;;;9.45;5.40;;;;;;;12.49;37.22;102006.38;5073646;28;20101;-69
2022/03/05 10:56:24;;;;;;;8.65;5.20;;;;;;;12.62;38.87;102005.81;5068927;28;20419;-69
2022/03/05 10:59:05;;;;;;;10.25;5.47;;;;;;;12.24;36.73;102011.72;5070668;28;20048;-70
2022/03/05 11:01:32;;;;;;;9.57;5.30;;;;;;;12.17;38.53;102005.00;5067925;28;20040;-70
2022/03/05 11:03:59;;;;;;;9.75;5.03;;;;;;;12.89;34.75;102008.25;5063820;28;20048;-70
2022/03/05 11:06:27;;;;;;;11.68;5.50;;;;;;;12.42;35.73;101995.22;5055503;28;20122;-70
2022/03/05 11:08:55;;;;;;;7.18;4.88;;;;;;;11.51;37.51;102003.91;5074573;28;20484;-70
2022/03/05 11:11:22;;;;;;;7.50;5.18;;;;;;;12.10;34.81;102003.50;5072781;28;20450;-70
2022/03/05 11:13:48;;;;;;;8.82;5.70;;;;;;;10.98;36.11;102010.13;5057834;28;20053;-70
2022/03/05 11:16:14;;;;;;;8.35;4.93;;;;;;;11.41;35.40;102009.53;5058226;28;20106;-70
2022/03/05 11:18:41;;;;;;;8.73;5.20;;;;;;;12.45;37.38;101997.72;5067159;28;20064;-70
2022/03/05 11:21:11;;;;;;;6.45;4.75;;;;;;;12.52;33.62;102001.84;5068703;28;20446;-70
2022/03/05 11:23:39;;;;;;;6.68;4.45;;;;;;;12.26;34.30;101999.38;5073436;28;20105;-70